Time;durP1;ratioP1;P1;durP2;ratioP2;P2;SDS_P1;SDS_P2;PMS_P1;PMS_P2;Temp;Humidity;BMP_temperature;BMP_pressure;BME280_temperature;BME280_humidity;BME280_pressure;Samples;Min_cycle;Max_cycle;Signal;HPM_P1;HPM_P2
2022/06/28 00:01:51;;;;;;;0.93;0.93;;;16.50;99.90;;;;;;5068555;28;20725;-87
2022/06/28 00:04:19;;;;;;;1.27;1.10;;;16.50;99.90;;;;;;5068385;28;20687;-88
2022/06/28 00:06:47;;;;;;;1.27;1.27;;;16.50;99.90;;;;;;5067847;28;20724;-86
2022/06/28 00:09:15;;;;;;;1.00;1.00;;;16.50;99.90;;;;;;5068618;28;20688;-88
2022/06/28 00:11:44;;;;;;;0.70;0.70;;;16.40;99.90;;;;;;5068423;28;20605;-87
2022/06/28 00:16:59;;;;;;;1.00;1.00;;;16.50;99.90;;;;;;5068145;28;20731;-86
2022/06/28 00:19:27;;;;;;;1.10;1.10;;;16.50;99.90;;;;;;5068300;28;21199;-87
2022/06/28 00:21:55;;;;;;;0.70;0.70;;;16.50;99.90;;;;;;5068235;28;20613;-86
2022/06/28 00:24:22;;;;;;;1.00;0.90;;;16.50;99.90;;;;;;5068166;28;20729;-86
2022/06/28 00:26:51;;;;;;;1.00;1.00;;;16.60;99.90;;;;;;5068029;28;20704;-86
2022/06/28 00:29:19;;;;;;;1.40;1.13;;;16.60;99.90;;;;;;5067890;28;21017;-88
2022/06/28 00:31:46;;;;;;;0.70;0.67;;;16.60;99.90;;;;;;5067734;28;20660;-85
2022/06/28 00:34:14;;;;;;;0.90;0.90;;;16.60;99.90;;;;;;5068126;28;20597;-86
2022/06/28 00:36:42;;;;;;;1.40;1.30;;;16.60;99.90;;;;;;5067959;28;20616;-86
2022/06/28 00:39:10;;;;;;;0.87;0.83;;;16.60;99.90;;;;;;5067922;28;20622;-87
2022/06/28 00:41:38;;;;;;;0.97;0.97;;;16.60;99.90;;;;;;5067930;28;20632;-88
2022/06/28 00:44:05;;;;;;;1.10;1.00;;;16.50;99.90;;;;;;5067522;28;20625;-87
2022/06/28 00:46:34;;;;;;;0.83;0.83;;;16.50;99.90;;;;;;5068044;28;20649;-88
2022/06/28 00:49:04;;;;;;;1.20;0.90;;;16.50;99.90;;;;;;5068230;28;20648;-86
2022/06/28 00:51:33;;;;;;;0.60;0.60;;;16.50;99.90;;;;;;5070601;28;20601;-87
2022/06/28 00:54:01;;;;;;;0.70;0.70;;;16.40;99.90;;;;;;5063942;28;21042;-88
2022/06/28 00:56:28;;;;;;;1.00;0.97;;;16.40;99.90;;;;;;5071863;28;20624;-87
2022/06/28 00:58:56;;;;;;;1.33;1.23;;;16.40;99.90;;;;;;5071547;28;20613;-87
2022/06/28 01:01:25;;;;;;;1.10;1.00;;;16.30;99.90;;;;;;5071807;28;20672;-86
2022/06/28 01:03:53;;;;;;;0.63;0.60;;;16.30;99.90;;;;;;5071874;28;20612;-88
2022/06/28 01:06:20;;;;;;;1.90;1.40;;;16.20;99.90;;;;;;5070349;28;20605;-87
2022/06/28 01:08:49;;;;;;;1.20;1.10;;;16.10;99.90;;;;;;5071423;28;20739;-87
2022/06/28 01:11:20;;;;;;;1.03;0.77;;;16.00;99.90;;;;;;5071318;28;20609;-87
2022/06/28 01:13:50;;;;;;;0.80;0.80;;;16.00;99.90;;;;;;5071650;28;20613;-86
2022/06/28 01:16:18;;;;;;;0.93;0.93;;;16.00;99.90;;;;;;5071331;28;20601;-86
2022/06/28 01:18:45;;;;;;;1.57;0.90;;;16.00;99.90;;;;;;5071673;28;20586;-86
2022/06/28 01:21:14;;;;;;;0.53;0.53;;;16.00;99.90;;;;;;5071337;28;20604;-86
2022/06/28 01:23:44;;;;;;;1.10;1.00;;;16.00;99.90;;;;;;5071196;28;20975;-86
2022/06/28 01:26:11;;;;;;;0.47;0.47;;;15.90;99.90;;;;;;5071312;28;20605;-86
2022/06/28 01:28:39;;;;;;;0.80;0.80;;;16.00;99.90;;;;;;5071055;28;21160;-86
2022/06/28 01:31:07;;;;;;;1.23;0.90;;;16.00;99.90;;;;;;5071236;28;20611;-87
2022/06/28 01:33:36;;;;;;;1.10;1.10;;;16.00;99.90;;;;;;5071101;28;20682;-87
2022/06/28 01:36:04;;;;;;;0.80;0.80;;;15.90;99.90;;;;;;5063424;28;20613;-86
2022/06/28 01:38:31;;;;;;;0.87;0.77;;;16.00;99.90;;;;;;5070842;28;20697;-86
2022/06/28 01:41:00;;;;;;;1.03;0.93;;;15.80;99.90;;;;;;5071174;28;20659;-87
2022/06/28 01:43:27;;;;;;;0.60;0.60;;;15.90;99.90;;;;;;5070880;28;20625;-86
2022/06/28 01:45:55;;;;;;;1.70;1.37;;;15.80;99.90;;;;;;5071165;28;20600;-86
2022/06/28 01:48:22;;;;;;;0.97;0.80;;;15.80;99.90;;;;;;5070890;28;20969;-86
2022/06/28 01:50:52;;;;;;;0.70;0.70;;;15.80;99.90;;;;;;5070789;28;20616;-85
2022/06/28 01:53:20;;;;;;;1.20;1.10;;;15.70;99.90;;;;;;5070667;28;21176;-87
2022/06/28 01:55:49;;;;;;;0.93;0.93;;;15.80;99.90;;;;;;5070889;28;21074;-86
2022/06/28 01:58:17;;;;;;;1.20;1.03;;;15.80;99.90;;;;;;5070886;28;20641;-86
2022/06/28 02:00:44;;;;;;;1.60;1.50;;;15.80;99.90;;;;;;5070789;28;21421;-88
2022/06/28 02:03:12;;;;;;;0.90;0.70;;;15.80;99.90;;;;;;5069397;28;20624;-86
2022/06/28 02:05:39;;;;;;;1.10;0.77;;;15.90;99.90;;;;;;5070644;28;20609;-85
2022/06/28 02:08:07;;;;;;;0.50;0.50;;;16.00;99.90;;;;;;5070469;28;21003;-86
2022/06/28 02:10:35;;;;;;;0.83;0.83;;;15.90;99.90;;;;;;5070708;28;20712;-87
2022/06/28 02:13:04;;;;;;;0.80;0.80;;;15.90;99.90;;;;;;5070534;28;20617;-86
2022/06/28 02:15:32;;;;;;;0.67;0.67;;;15.90;99.90;;;;;;5070596;28;20609;-87
2022/06/28 02:18:00;;;;;;;0.93;0.93;;;15.80;99.90;;;;;;5069919;28;20679;-87
2022/06/28 02:20:28;;;;;;;1.03;0.70;;;15.70;99.90;;;;;;5070389;28;20633;-88
2022/06/28 02:22:55;;;;;;;0.53;0.50;;;15.60;99.90;;;;;;5070425;28;20624;-86
2022/06/28 02:25:22;;;;;;;0.70;0.70;;;15.50;99.90;;;;;;5070351;28;20717;-86
2022/06/28 02:27:49;;;;;;;0.87;0.87;;;15.50;99.90;;;;;;5070040;28;20637;-87
2022/06/28 02:30:16;;;;;;;0.60;0.60;;;15.50;99.90;;;;;;5069798;28;20652;-87
2022/06/28 02:32:45;;;;;;;1.07;0.97;;;15.40;99.90;;;;;;5070080;28;20608;-86
2022/06/28 02:40:42;;;;;;;0.83;0.73;;;15.40;99.90;;;;;;5070752;28;20672;-87
2022/06/28 02:43:09;;;;;;;0.47;0.47;;;15.40;99.90;;;;;;5069916;28;20600;-87
2022/06/28 02:45:36;;;;;;;2.20;1.10;;;15.50;99.90;;;;;;5069818;28;20614;-87
2022/06/28 02:48:05;;;;;;;0.90;0.90;;;15.50;99.90;;;;;;5069768;28;20979;-87
2022/06/28 02:50:32;;;;;;;0.77;0.77;;;15.40;99.90;;;;;;5070009;28;21360;-87
2022/06/28 02:53:00;;;;;;;0.87;0.87;;;15.30;99.90;;;;;;5061489;28;21014;-87
2022/06/28 02:55:27;;;;;;;0.90;0.90;;;15.20;99.90;;;;;;5069369;28;20751;-88
2022/06/28 02:57:54;;;;;;;2.20;1.20;;;15.10;99.90;;;;;;5069541;28;20682;-87
2022/06/28 03:00:22;;;;;;;0.90;0.90;;;15.00;99.90;;;;;;5069646;28;20624;-87
2022/06/28 03:02:50;;;;;;;1.03;0.60;;;15.00;99.90;;;;;;5069630;28;20612;-86
2022/06/28 03:05:21;;;;;;;0.60;0.60;;;15.00;99.90;;;;;;5069524;28;20656;-86
2022/06/28 03:07:49;;;;;;;1.10;0.90;;;15.10;99.90;;;;;;5069338;28;20674;-86
2022/06/28 03:10:18;;;;;;;0.70;0.70;;;14.90;99.90;;;;;;5069615;28;20772;-86
2022/06/28 03:12:45;;;;;;;1.13;1.03;;;15.00;99.90;;;;;;5069488;28;20620;-86
2022/06/28 03:15:13;;;;;;;0.73;0.73;;;14.90;99.90;;;;;;5069385;28;20719;-86
2022/06/28 03:17:41;;;;;;;1.23;1.13;;;14.90;99.90;;;;;;5068925;28;20612;-87
2022/06/28 03:20:09;;;;;;;0.70;0.67;;;15.00;99.90;;;;;;5069385;28;20635;-86
2022/06/28 03:22:37;;;;;;;1.30;1.20;;;15.00;99.90;;;;;;5068649;28;20711;-87
2022/06/28 03:25:05;;;;;;;1.00;1.00;;;15.00;99.90;;;;;;5069438;28;20621;-87
2022/06/28 03:27:32;;;;;;;1.10;1.00;;;15.10;99.90;;;;;;5068797;28;20640;-86
2022/06/28 03:29:59;;;;;;;1.40;1.07;;;15.00;99.90;;;;;;5061006;28;20684;-86
2022/06/28 03:32:26;;;;;;;0.90;0.90;;;15.00;99.90;;;;;;5068839;28;20605;-88
2022/06/28 03:34:53;;;;;;;1.13;1.13;;;15.00;99.90;;;;;;5069100;28;20653;-88
2022/06/28 03:37:20;;;;;;;1.43;0.90;;;15.00;99.90;;;;;;5068658;28;20718;-86
2022/06/28 03:39:48;;;;;;;0.97;0.97;;;15.10;99.90;;;;;;5068965;28;20618;-86
2022/06/28 03:42:15;;;;;;;1.13;1.07;;;15.10;99.90;;;;;;5068518;28;20614;-87
2022/06/28 03:44:42;;;;;;;0.93;0.90;;;15.10;99.90;;;;;;5068888;28;21204;-86
2022/06/28 03:47:09;;;;;;;1.20;1.03;;;15.10;99.90;;;;;;5069037;28;20968;-87
2022/06/28 03:49:36;;;;;;;0.90;0.90;;;15.10;99.90;;;;;;5068355;28;20699;-87
2022/06/28 03:52:03;;;;;;;1.07;0.97;;;15.20;99.90;;;;;;5068675;28;20627;-87
2022/06/28 03:54:30;;;;;;;2.07;1.30;;;15.20;99.90;;;;;;5068383;28;21255;-86
2022/06/28 03:56:58;;;;;;;1.73;1.20;;;15.20;99.90;;;;;;5068579;28;20665;-87
2022/06/28 03:59:25;;;;;;;1.37;1.27;;;15.30;99.90;;;;;;5068677;28;20627;-87
2022/06/28 04:01:52;;;;;;;1.30;1.20;;;15.20;99.90;;;;;;5068669;28;20706;-87
2022/06/28 04:04:19;;;;;;;1.20;1.10;;;15.30;99.90;;;;;;5068134;28;20597;-86
2022/06/28 04:06:46;;;;;;;0.90;0.90;;;15.40;99.90;;;;;;5068306;28;20653;-86
2022/06/28 04:09:13;;;;;;;1.23;1.10;;;15.40;99.90;;;;;;5068668;28;20716;-87
2022/06/28 04:11:40;;;;;;;1.10;1.00;;;15.30;99.90;;;;;;5068267;28;21190;-87
2022/06/28 04:14:11;;;;;;;0.93;0.93;;;15.40;99.90;;;;;;5068201;28;20680;-88
2022/06/28 04:16:38;;;;;;;1.37;0.90;;;15.50;99.90;;;;;;5073261;28;20652;-88
2022/06/28 04:19:05;;;;;;;1.73;1.23;;;15.40;99.90;;;;;;5080405;28;20714;-88
2022/06/28 04:21:31;;;;;;;0.80;0.80;;;15.40;99.90;;;;;;5081643;28;20612;-87
2022/06/28 04:23:58;;;;;;;1.07;1.07;;;15.50;99.90;;;;;;5088740;28;20643;-89
2022/06/28 04:26:25;;;;;;;1.17;1.07;;;15.50;99.90;;;;;;5088314;28;20650;-88
2022/06/28 04:28:52;;;;;;;0.97;0.97;;;15.60;99.90;;;;;;5089680;28;20705;-88
2022/06/28 04:31:20;;;;;;;0.93;0.93;;;15.60;99.90;;;;;;5089201;28;20633;-88
2022/06/28 04:33:47;;;;;;;5.23;1.47;;;15.50;99.90;;;;;;5089033;28;20651;-88
2022/06/28 04:36:14;;;;;;;1.10;1.07;;;15.60;99.90;;;;;;5088565;28;20693;-88
2022/06/28 04:38:41;;;;;;;1.83;1.40;;;15.60;99.90;;;;;;5088372;28;20711;-89
2022/06/28 04:41:08;;;;;;;0.87;0.87;;;15.60;99.90;;;;;;5068324;28;20666;-88
2022/06/28 04:43:35;;;;;;;2.00;1.90;;;15.70;99.90;;;;;;5068258;28;20616;-88
2022/06/28 04:46:02;;;;;;;1.30;1.20;;;15.70;99.90;;;;;;5067535;28;21198;-88
2022/06/28 04:48:30;;;;;;;0.93;0.83;;;15.80;99.90;;;;;;5068253;28;21598;-89
2022/06/28 04:51:10;;;;;;;1.23;1.17;;;15.70;99.90;;;;;;5068113;28;21452;-88
2022/06/28 04:53:38;;;;;;;1.33;1.23;;;15.80;99.90;;;;;;5068014;28;20624;-87
2022/06/28 04:56:05;;;;;;;0.93;0.93;;;15.80;99.90;;;;;;5068287;28;20625;-88
2022/06/28 04:58:32;;;;;;;2.43;2.23;;;15.90;99.90;;;;;;5067925;28;21122;-87
2022/06/28 05:00:59;;;;;;;1.27;1.20;;;16.00;99.90;;;;;;5068223;28;21504;-87
2022/06/28 05:03:26;;;;;;;1.63;1.53;;;15.90;99.90;;;;;;5068361;28;20724;-87
2022/06/28 05:05:54;;;;;;;1.40;1.30;;;15.80;99.90;;;;;;5068500;28;20698;-88
2022/06/28 05:08:21;;;;;;;2.97;2.00;;;15.80;99.90;;;;;;5068260;28;20723;-87
2022/06/28 05:10:48;;;;;;;1.50;1.40;;;15.80;99.90;;;;;;5068220;28;20703;-88
2022/06/28 05:13:15;;;;;;;2.00;1.43;;;15.60;99.90;;;;;;5067941;28;20725;-87
2022/06/28 05:15:42;;;;;;;1.63;1.53;;;15.80;99.90;;;;;;5068252;28;20617;-87
2022/06/28 05:18:09;;;;;;;2.03;1.57;;;15.70;99.90;;;;;;5068431;28;21278;-88
2022/06/28 05:20:36;;;;;;;1.63;1.53;;;15.80;99.90;;;;;;5069338;28;20612;-87
2022/06/28 05:23:04;;;;;;;2.80;1.53;;;15.80;99.90;;;;;;5068554;28;20621;-87
2022/06/28 05:25:31;;;;;;;2.47;2.10;;;15.90;99.90;;;;;;5068506;28;20621;-87
2022/06/28 05:27:58;;;;;;;2.70;2.40;;;15.90;99.90;;;;;;5068948;28;20735;-88
2022/06/28 05:30:25;;;;;;;2.40;2.20;;;15.90;99.90;;;;;;5068311;28;20649;-87
2022/06/28 05:32:52;;;;;;;3.10;2.43;;;16.10;99.90;;;;;;5069069;28;20638;-88
2022/06/28 05:35:19;;;;;;;3.73;3.43;;;16.10;99.90;;;;;;5068970;28;20651;-87
2022/06/28 05:37:45;;;;;;;3.93;3.10;;;16.20;99.90;;;;;;5068795;28;20612;-88
2022/06/28 05:40:14;;;;;;;3.30;3.00;;;16.30;99.90;;;;;;5072273;28;20695;-87
2022/06/28 05:42:41;;;;;;;3.50;2.90;;;16.30;99.90;;;;;;5071887;28;20681;-87
2022/06/28 05:45:09;;;;;;;2.50;2.30;;;16.30;99.90;;;;;;5072163;28;20620;-88
2022/06/28 05:47:36;;;;;;;3.70;2.50;;;16.30;99.90;;;;;;5071913;28;20675;-87
2022/06/28 05:50:03;;;;;;;3.37;3.07;;;16.30;99.90;;;;;;5072167;28;20680;-87
2022/06/28 05:52:29;;;;;;;2.37;2.20;;;16.40;99.90;;;;;;5071159;28;20641;-86
2022/06/28 05:54:56;;;;;;;2.63;2.43;;;16.50;99.90;;;;;;5071900;28;20656;-87
2022/06/28 05:57:24;;;;;;;3.33;2.73;;;16.50;99.90;;;;;;5071810;28;20620;-88
2022/06/28 05:59:51;;;;;;;3.60;3.20;;;16.60;99.90;;;;;;5071996;28;21037;-87
2022/06/28 06:02:18;;;;;;;2.67;2.43;;;16.70;99.90;;;;;;5071962;28;20723;-87
2022/06/28 06:04:45;;;;;;;3.10;2.80;;;16.60;99.90;;;;;;5071506;28;20644;-88
2022/06/28 06:07:12;;;;;;;3.60;3.27;;;16.70;99.90;;;;;;5071224;28;20620;-87
2022/06/28 06:09:42;;;;;;;3.00;2.70;;;16.70;99.90;;;;;;5071903;28;20680;-87
2022/06/28 06:12:09;;;;;;;3.90;3.50;;;16.60;99.90;;;;;;5072257;28;20690;-88
2022/06/28 06:14:37;;;;;;;3.47;2.90;;;16.60;99.90;;;;;;5072511;28;21299;-87
2022/06/28 06:17:05;;;;;;;4.10;3.43;;;16.70;99.90;;;;;;5072243;28;20645;-87
2022/06/28 06:19:32;;;;;;;3.70;3.40;;;16.70;99.90;;;;;;5071056;28;20707;-88
2022/06/28 06:21:59;;;;;;;4.73;3.20;;;16.70;99.90;;;;;;5071342;28;20616;-87
2022/06/28 06:24:26;;;;;;;3.90;3.50;;;16.90;99.90;;;;;;5071436;28;20661;-88
2022/06/28 06:26:53;;;;;;;3.47;3.17;;;16.90;99.90;;;;;;5071032;28;21246;-87
2022/06/28 06:29:20;;;;;;;4.30;3.90;;;17.00;99.90;;;;;;5070519;28;20678;-88
2022/06/28 06:31:48;;;;;;;3.20;2.93;;;17.10;99.90;;;;;;5070479;28;20652;-88
2022/06/28 06:34:15;;;;;;;4.73;3.37;;;17.10;99.90;;;;;;5070310;28;20616;-87
2022/06/28 06:36:43;;;;;;;6.13;3.30;;;17.20;99.90;;;;;;5070298;28;20716;-86
2022/06/28 06:39:10;;;;;;;2.90;2.60;;;17.30;99.90;;;;;;5070384;28;20678;-88
2022/06/28 06:41:37;;;;;;;4.70;3.10;;;17.50;99.90;;;;;;5069998;28;20645;-88
2022/06/28 06:44:04;;;;;;;3.80;3.03;;;17.60;99.90;;;;;;5070169;28;20617;-88
2022/06/28 06:46:33;;;;;;;4.13;3.30;;;17.60;99.90;;;;;;5070004;28;20623;-87
2022/06/28 06:49:01;;;;;;;3.17;2.63;;;17.60;99.90;;;;;;5069797;28;20662;-87
2022/06/28 06:51:30;;;;;;;3.23;2.90;;;17.60;99.90;;;;;;5069610;28;20678;-87
2022/06/28 06:53:57;;;;;;;2.87;2.60;;;17.60;99.90;;;;;;5069973;28;20625;-87
2022/06/28 06:56:24;;;;;;;2.77;2.57;;;17.60;99.90;;;;;;5069891;28;20748;-88
2022/06/28 06:58:51;;;;;;;3.53;3.23;;;17.70;99.90;;;;;;5069686;28;20629;-88
2022/06/28 07:01:18;;;;;;;3.73;2.70;;;17.70;99.90;;;;;;5069415;28;20623;-86
2022/06/28 07:03:45;;;;;;;3.70;3.00;;;17.70;99.90;;;;;;5069918;28;20628;-87
2022/06/28 07:06:14;;;;;;;2.87;2.23;;;17.70;99.90;;;;;;5069739;28;20763;-87
2022/06/28 07:08:41;;;;;;;5.20;3.00;;;17.70;99.90;;;;;;5069473;28;20620;-86
2022/06/28 07:11:08;;;;;;;2.90;2.63;;;17.60;99.90;;;;;;5069630;28;20755;-86
2022/06/28 07:13:35;;;;;;;4.40;3.27;;;17.60;99.90;;;;;;5069290;28;20706;-87
2022/06/28 07:16:02;;;;;;;3.67;2.97;;;17.50;99.90;;;;;;5069469;28;20678;-87
2022/06/28 07:18:29;;;;;;;2.80;2.60;;;17.50;99.90;;;;;;5069377;28;20625;-88
2022/06/28 07:20:56;;;;;;;3.23;2.93;;;17.40;99.90;;;;;;5069510;28;20616;-90
2022/06/28 07:23:25;;;;;;;4.80;3.63;;;17.40;99.90;;;;;;5069403;28;21257;-88
2022/06/28 07:25:52;;;;;;;5.27;3.40;;;17.40;99.90;;;;;;5069506;28;20661;-88
2022/06/28 07:28:19;;;;;;;3.13;2.83;;;17.30;99.90;;;;;;5068567;28;20682;-86
2022/06/28 07:30:47;;;;;;;4.83;4.30;;;17.30;99.90;;;;;;5069331;28;21057;-87
2022/06/28 07:33:14;;;;;;;4.60;4.03;;;17.30;99.90;;;;;;5069326;28;20621;-87
2022/06/28 07:35:41;;;;;;;3.50;3.20;;;17.40;99.90;;;;;;5069320;28;20609;-87
2022/06/28 07:38:08;;;;;;;4.37;3.20;;;17.30;99.90;;;;;;5069094;28;20627;-88
2022/06/28 07:40:37;;;;;;;5.53;3.63;;;17.50;99.90;;;;;;5068939;28;20622;-87
2022/06/28 07:43:04;;;;;;;3.17;2.90;;;17.60;99.90;;;;;;5068520;28;21311;-86
2022/06/28 07:45:31;;;;;;;5.90;3.33;;;17.70;99.90;;;;;;5069131;28;20654;-87
2022/06/28 07:47:57;;;;;;;3.67;3.37;;;17.90;99.90;;;;;;5069018;28;20609;-87
2022/06/28 07:53:11;;;;;;;3.60;3.30;;;18.20;99.90;;;;;;5068663;28;20585;-85
2022/06/28 07:55:39;;;;;;;3.70;3.40;;;18.10;99.90;;;;;;5068401;28;20724;-86
2022/06/28 07:58:06;;;;;;;4.00;3.07;;;18.40;99.90;;;;;;5068842;28;20621;-89
2022/06/28 08:00:34;;;;;;;4.30;3.60;;;18.50;99.90;;;;;;5068599;28;20625;-87
2022/06/28 08:03:00;;;;;;;5.87;3.80;;;18.50;99.90;;;;;;5061524;28;20625;-89
2022/06/28 08:05:27;;;;;;;3.93;3.13;;;18.60;99.90;;;;;;5068623;28;20706;-89
2022/06/28 08:07:54;;;;;;;2.83;2.63;;;18.40;99.90;;;;;;5068618;28;20729;-89
2022/06/28 08:10:21;;;;;;;3.73;2.83;;;18.40;99.90;;;;;;5069078;28;20710;-87
2022/06/28 08:12:50;;;;;;;4.87;4.47;;;18.30;99.90;;;;;;5068570;28;21159;-89
2022/06/28 08:15:16;;;;;;;3.43;3.00;;;18.30;99.90;;;;;;5068606;28;20616;-88
2022/06/28 08:17:43;;;;;;;3.73;2.50;;;18.60;99.90;;;;;;5068612;28;20663;-88
2022/06/28 08:20:11;;;;;;;3.50;3.20;;;18.90;99.90;;;;;;5069078;28;20602;-88
2022/06/28 08:22:38;;;;;;;3.40;3.10;;;19.10;99.90;;;;;;5068438;28;20632;-88
2022/06/28 08:25:06;;;;;;;3.93;3.53;;;19.20;99.90;;;;;;5072147;28;20628;-90
2022/06/28 08:27:33;;;;;;;3.83;3.30;;;19.50;99.90;;;;;;5080270;28;20677;-89
2022/06/28 08:30:01;;;;;;;4.40;3.80;;;19.40;99.90;;;;;;5070450;28;20640;-87
2022/06/28 08:32:28;;;;;;;3.17;2.97;;;19.30;99.90;;;;;;5083202;28;20618;-89
2022/06/28 08:34:55;;;;;;;4.23;2.90;;;19.30;99.90;;;;;;5077690;28;21249;-89
2022/06/28 08:37:22;;;;;;;5.40;3.13;;;19.30;99.90;;;;;;5075236;28;21069;-88
2022/06/28 08:39:49;;;;;;;2.20;2.00;;;19.20;99.90;;;;;;5076202;28;20629;-89
2022/06/28 08:42:20;;;;;;;4.40;3.10;;;19.20;99.90;;;;;;5074326;28;21344;-88
2022/06/28 08:44:49;;;;;;;4.53;3.10;;;19.40;99.90;;;;;;5080661;28;20609;-90
2022/06/28 08:47:20;;;;;;;3.13;2.90;;;19.40;99.90;;;;;;5080537;28;20628;-89
2022/06/28 08:49:54;;;;;;;5.97;2.80;;;19.30;99.90;;;;;;5082884;28;21163;-88
2022/06/28 08:52:23;;;;;;;2.70;2.50;;;19.50;99.90;;;;;;5068334;28;20724;-89
2022/06/28 08:54:50;;;;;;;2.77;2.57;;;19.40;99.90;;;;;;5068434;28;20618;-89
2022/06/28 08:57:19;;;;;;;2.63;2.43;;;19.30;99.90;;;;;;5068348;28;20676;-88
2022/06/28 08:59:47;;;;;;;3.57;3.13;;;19.40;99.90;;;;;;5068474;28;21167;-88
2022/06/28 09:02:15;;;;;;;3.50;3.07;;;19.50;99.90;;;;;;5066437;28;20719;-88
2022/06/28 09:04:46;;;;;;;3.10;2.83;;;19.60;99.90;;;;;;5068177;28;20621;-89
2022/06/28 09:07:13;;;;;;;3.47;2.70;;;19.60;99.90;;;;;;5067471;28;21027;-88
2022/06/28 09:09:40;;;;;;;2.97;2.60;;;19.80;99.90;;;;;;5067948;28;21058;-90
2022/06/28 09:12:08;;;;;;;3.23;2.83;;;19.80;99.90;;;;;;5068683;28;20722;-88
2022/06/28 09:14:35;;;;;;;2.40;2.23;;;19.70;99.90;;;;;;5071470;28;20623;-88
2022/06/28 09:17:21;;;;;;;3.50;1.90;;;19.80;99.90;;;;;;5071752;28;20629;-88
2022/06/28 09:19:52;;;;;;;2.77;2.57;;;20.00;99.90;;;;;;5072144;28;21092;-89
2022/06/28 09:22:34;;;;;;;3.23;2.60;;;20.30;99.90;;;;;;5071554;28;20963;-88
2022/06/28 09:25:03;;;;;;;1.83;1.73;;;20.60;99.90;;;;;;5071599;28;21155;-88
2022/06/28 09:27:34;;;;;;;2.60;2.40;;;20.60;99.90;;;;;;5071815;28;20621;-87
2022/06/28 09:30:02;;;;;;;2.27;2.07;;;20.30;99.90;;;;;;5071804;28;20727;-88
2022/06/28 09:32:31;;;;;;;2.50;2.30;;;20.30;99.90;;;;;;5071413;28;20743;-88
2022/06/28 09:35:01;;;;;;;2.40;1.90;;;20.50;99.90;;;;;;5071778;28;20658;-88
2022/06/28 09:37:38;;;;;;;2.30;2.10;;;20.70;99.90;;;;;;5071035;28;20631;-88
2022/06/28 09:40:17;;;;;;;2.27;2.07;;;20.80;99.90;;;;;;5056693;28;20627;-89
2022/06/28 09:42:44;;;;;;;1.70;1.60;;;20.90;99.90;;;;;;5051996;28;20621;-87
2022/06/28 09:45:13;;;;;;;2.50;2.30;;;21.00;99.90;;;;;;5051921;28;20687;-87
2022/06/28 09:47:46;;;;;;;1.87;1.77;;;21.10;99.70;;;;;;5052811;28;20724;-87
2022/06/28 09:50:20;;;;;;;1.87;1.60;;;21.20;99.90;;;;;;5051635;28;20665;-87
2022/06/28 09:52:49;;;;;;;2.23;2.03;;;21.40;99.90;;;;;;5051460;28;20597;-89
2022/06/28 09:55:17;;;;;;;2.00;1.90;;;21.40;99.90;;;;;;5051642;28;20675;-87
2022/06/28 09:57:47;;;;;;;2.20;1.97;;;21.60;99.50;;;;;;5051455;28;20664;-91
2022/06/28 10:00:17;;;;;;;3.00;2.40;;;21.50;99.90;;;;;;5051411;28;20640;-89
2022/06/28 10:02:44;;;;;;;1.80;1.70;;;21.30;99.90;;;;;;5050799;28;20613;-89
2022/06/28 10:05:12;;;;;;;1.40;1.30;;;21.20;99.90;;;;;;5050778;28;21525;-90
2022/06/28 10:07:40;;;;;;;2.60;2.40;;;21.30;99.80;;;;;;5050829;28;20646;-91
2022/06/28 10:10:10;;;;;;;1.70;1.60;;;21.60;99.90;;;;;;5051039;28;20729;-88
2022/06/28 10:15:24;;;;;;;2.27;2.10;;;22.20;99.20;;;;;;5050978;28;21157;-91
2022/06/28 10:17:55;;;;;;;1.77;1.67;;;22.50;97.40;;;;;;5050774;28;20621;-88
2022/06/28 10:20:26;;;;;;;2.30;2.10;;;22.40;98.00;;;;;;5050693;28;20618;-87
2022/06/28 10:23:22;;;;;;;1.70;1.60;;;22.60;95.80;;;;;;5050500;28;21171;-88
2022/06/28 10:26:12;;;;;;;1.60;1.50;;;23.00;96.30;;;;;;5050360;28;20637;-88
2022/06/28 10:28:43;;;;;;;1.80;1.70;;;23.30;95.50;;;;;;5050542;28;20744;-88
2022/06/28 10:31:34;;;;;;;1.63;1.53;;;23.40;95.20;;;;;;5050206;28;20653;-87
2022/06/28 10:34:02;;;;;;;1.40;1.30;;;23.60;94.40;;;;;;5050238;28;21263;-87
2022/06/28 10:36:32;;;;;;;1.90;1.77;;;23.50;93.00;;;;;;5050290;28;21176;-88
2022/06/28 10:39:19;;;;;;;2.60;2.00;;;23.30;94.40;;;;;;5052996;28;21585;-91
2022/06/28 10:41:48;;;;;;;1.53;1.43;;;23.20;94.50;;;;;;5070266;28;20736;-89
2022/06/28 10:44:16;;;;;;;1.70;1.60;;;23.50;94.10;;;;;;5069738;28;20628;-90
2022/06/28 10:46:48;;;;;;;1.40;1.30;;;23.60;93.20;;;;;;5070046;28;20621;-87
2022/06/28 10:49:16;;;;;;;1.90;1.77;;;23.40;93.60;;;;;;5070067;28;20632;-87
2022/06/28 10:52:12;;;;;;;1.70;1.60;;;23.40;91.70;;;;;;5070015;28;20645;-88
2022/06/28 10:54:43;;;;;;;1.77;1.67;;;23.60;93.10;;;;;;5069557;28;20620;-87
2022/06/28 10:57:23;;;;;;;1.50;1.40;;;23.70;93.50;;;;;;5069857;28;20616;-87
2022/06/28 10:59:52;;;;;;;2.07;1.87;;;24.00;94.40;;;;;;5069846;28;21412;-88
2022/06/28 11:02:20;;;;;;;1.40;1.30;;;24.00;91.60;;;;;;5070007;28;20664;-89
2022/06/28 11:05:03;;;;;;;1.50;1.40;;;23.40;92.90;;;;;;5069830;28;20649;-87
2022/06/28 11:07:31;;;;;;;1.63;1.53;;;23.30;93.90;;;;;;5069569;28;20782;-87
2022/06/28 11:10:13;;;;;;;1.40;1.30;;;23.70;93.50;;;;;;5061655;28;20883;-87
2022/06/28 11:12:42;;;;;;;1.50;1.40;;;23.90;92.50;;;;;;5069516;28;20684;-88
2022/06/28 11:15:10;;;;;;;1.60;1.47;;;23.70;93.00;;;;;;5069551;28;20653;-87
2022/06/28 11:17:40;;;;;;;1.17;1.00;;;23.70;91.70;;;;;;5068872;28;20707;-88
2022/06/28 11:20:10;;;;;;;1.80;1.43;;;23.60;92.90;;;;;;5069702;28;20627;-87
2022/06/28 11:22:40;;;;;;;1.60;1.50;;;23.90;92.00;;;;;;5069754;28;20606;-88
2022/06/28 11:25:10;;;;;;;1.40;1.30;;;24.10;91.40;;;;;;5069525;28;21032;-88
2022/06/28 11:27:44;;;;;;;1.50;1.40;;;24.30;90.80;;;;;;5069329;28;20641;-87
2022/06/28 11:30:11;;;;;;;1.50;1.40;;;24.40;90.30;;;;;;5069818;28;20716;-88
2022/06/28 11:32:40;;;;;;;1.13;1.13;;;24.40;88.40;;;;;;5069113;28;20667;-87
2022/06/28 11:35:10;;;;;;;1.27;1.17;;;24.50;88.80;;;;;;5069082;28;20629;-87
2022/06/28 11:37:51;;;;;;;1.60;1.50;;;24.60;90.70;;;;;;5068872;28;20654;-89
2022/06/28 11:40:22;;;;;;;1.20;1.10;;;24.60;88.70;;;;;;5068582;28;20632;-89
2022/06/28 11:43:01;;;;;;;1.23;1.20;;;24.70;87.80;;;;;;5069003;28;20682;-86
2022/06/28 11:45:29;;;;;;;1.20;1.13;;;24.60;88.50;;;;;;5068715;28;21167;-87
2022/06/28 11:47:56;;;;;;;1.13;1.13;;;24.50;87.40;;;;;;5068853;28;20757;-89
2022/06/28 11:50:23;;;;;;;1.10;1.10;;;24.70;85.80;;;;;;5068783;28;21037;-88
2022/06/28 11:52:52;;;;;;;1.30;1.20;;;24.60;90.60;;;;;;5068307;28;20644;-87
2022/06/28 11:55:37;;;;;;;1.73;1.63;;;24.90;88.40;;;;;;5068891;28;20620;-88
2022/06/28 11:58:14;;;;;;;1.13;1.00;;;25.20;88.40;;;;;;5068639;28;21189;-88
2022/06/28 12:00:42;;;;;;;1.33;1.20;;;25.40;86.60;;;;;;5068599;28;21177;-90
2022/06/28 12:03:11;;;;;;;1.20;1.03;;;25.60;84.50;;;;;;5068817;28;20605;-89
2022/06/28 12:05:38;;;;;;;1.37;1.17;;;25.50;88.20;;;;;;5068487;28;20625;-87
2022/06/28 12:08:07;;;;;;;1.07;1.07;;;25.80;87.40;;;;;;5068491;28;20657;-88
2022/06/28 12:10:36;;;;;;;1.00;1.00;;;25.80;86.20;;;;;;5068282;28;21000;-90
2022/06/28 12:13:11;;;;;;;1.50;1.40;;;25.70;86.70;;;;;;5068342;28;20653;-86
2022/06/28 12:15:39;;;;;;;1.27;1.17;;;26.10;84.20;;;;;;5068368;28;21193;-87
2022/06/28 12:18:08;;;;;;;1.13;1.13;;;26.20;82.30;;;;;;5068061;28;20683;-87
2022/06/28 12:20:35;;;;;;;1.43;1.33;;;26.30;80.70;;;;;;5068482;28;20698;-88
2022/06/28 12:23:05;;;;;;;0.83;0.83;;;26.30;79.20;;;;;;5068278;28;20715;-87
2022/06/28 12:25:33;;;;;;;1.10;1.00;;;25.70;82.30;;;;;;5068500;28;20645;-89
2022/06/28 12:28:02;;;;;;;0.87;0.87;;;25.20;80.50;;;;;;5068295;28;20712;-88
2022/06/28 12:30:29;;;;;;;1.23;1.23;;;24.80;83.70;;;;;;5067517;28;21220;-88
2022/06/28 12:32:58;;;;;;;1.03;1.03;;;24.60;82.00;;;;;;5067839;28;20649;-87
2022/06/28 12:35:25;;;;;;;1.00;1.00;;;24.30;83.20;;;;;;5069493;28;20736;-90
2022/06/28 12:37:52;;;;;;;1.20;1.20;;;24.10;84.50;;;;;;5068387;28;20653;-86
2022/06/28 12:40:21;;;;;;;0.87;0.87;;;24.10;84.50;;;;;;5067175;28;20618;-88
2022/06/28 12:42:48;;;;;;;1.27;1.17;;;24.20;87.40;;;;;;5064980;28;20644;-88
2022/06/28 12:45:17;;;;;;;1.83;1.40;;;24.10;88.10;;;;;;5065566;28;20682;-88
2022/06/28 12:47:44;;;;;;;1.33;1.23;;;24.10;88.50;;;;;;5068626;28;20698;-87
2022/06/28 12:50:15;;;;;;;1.30;1.20;;;24.00;87.90;;;;;;5071877;28;20960;-89
2022/06/28 12:52:46;;;;;;;1.00;1.00;;;24.00;88.20;;;;;;5079449;28;20641;-89
2022/06/28 12:55:14;;;;;;;1.33;1.30;;;23.90;88.90;;;;;;5077967;28;20609;-90
2022/06/28 12:57:42;;;;;;;1.40;1.30;;;23.60;89.80;;;;;;5078746;28;20615;-88
2022/06/28 13:00:11;;;;;;;1.00;0.90;;;23.70;89.20;;;;;;5073973;28;20624;-88
2022/06/28 13:02:40;;;;;;;1.30;1.20;;;23.90;87.00;;;;;;5075128;28;20652;-86
2022/06/28 13:05:08;;;;;;;0.77;0.77;;;24.10;89.10;;;;;;5079458;28;20659;-88
2022/06/28 13:07:35;;;;;;;1.00;1.00;;;24.20;84.60;;;;;;5079669;28;20702;-88
2022/06/28 13:10:02;;;;;;;1.30;1.20;;;24.20;85.10;;;;;;5070873;28;21205;-86